Elba, Alabama
Current Conditions -  °F | °C
As of 6:55 PM on Saturday 22 Nov 2014 (Local Time) from KEDN Reporting Station
Overcast Overcast  
Wind Chill: 14°   Ceiling: 800
Heat Index: 14°   Visibility: 10mi
Dew Point: 13°   Wind: 7mph
Humidity: 94%   Direction: 70°ENE
Pressure: 30.13"   Gusts: NA
Location:  31.41°N, 86.07°W
Report Text: KEDN 230055Z AUTO 07006KT 10SM OVC008 14/13 A3013 RMK AO2
Loading
Personal Weather Stations






























Interactive Weather Map New forecast layout! Learn more

10-Day Weather Forecast

Advertisements
Track Severe Weather on mobile